Clemson, SC

12:50 PM EDT on July 29, 2015 (GMT -0400)
CU Ent Dept | | Change Station
CLOSE
Current Station
Personal Weather Station
Location: Clemson, SC
Elevation: 842 ft
Nearby Weather Stations

Elev 842 ft 34.68 °N, 82.83 °W | Updated 11 seconds ago

Partly Cloudy
Partly Cloudy
89.0 °F
Feels Like 98 °F
N
5.0
Wind Variable Wind from ESE
Gusts 5.0 mph

Today
High -- | Low -- °F
--% Chance of Precip.
Yesterday
High -- | Low -- °F
Precip. -- in
6:38 AM 8:36 PM
Waxing Gibbous, 96% visible
Pressure 30.01 in
Visibility 10.0 miles
Clouds Scattered Clouds 2200 ft
Heat Index 98 °F
Dew Point 74 °F
Humidity 61%
Rainfall 0.00 in
Snow Depth Not available.
UV 8 out of 12
Pollen 3.40 out of 12
Air Quality Not available.
Flu Activity Not available.
METAR KCEU 291554Z AUTO 00000KT 10SM SCT022 32/23 A3005 RMK AO2 SLP161 T03170228

More Conditions Fewer Conditions

Pressure 30.01 in
Visibility 10.0 miles
Clouds Scattered Clouds 2200 ft
Heat Index 98 °F
Dew Point 74 °F
Humidity 61%
Rainfall 0.00 in
Snow Depth Not available.
UV 8 out of 12
Pollen 3.40 out of 12
Air Quality Not available.
Flu Activity Not available.
METAR KCEU 291554Z AUTO 00000KT 10SM SCT022 32/23 A3005 RMK AO2 SLP161 T03170228

More Conditions Fewer Conditions

10-Day Weather Forecast

×

Almanac

Astronomy

Jul. 29, 2015 Rise Set
Actual Time
Civil Twilight
Nautical Twilight
Astronomical Twilight
Moon
Length of Visible Light
Length of Day
Tomorrow will be .
, % of the Moon is Illuminated

Today's Extremes

State Highs State Lows

Community

WunderPhotos

Upload Photos

1,842,130 photos uploaded!

WunderBlogs® & News

Nearby

Air Quality

  Air Quality AQ Index Pollutant
Not available.

Snow Depth

Station Depth Elevation

Earthquake Activity

City Distance Mag. Time & Date
Minimum magnitude displayed is 2.5.

Coastal Water Temperatures

Place Temperature

Stations

Nearby Weather Stations

Station Location Temp. Windchill Dew Point Humidity Wind Precip. Elev Updated Type